createdAt,value
2022-11-12T00:00:09.098Z,12.10
2022-11-12T00:02:54.567Z,12.10
2022-11-12T00:05:40.150Z,12.10
2022-11-12T00:08:26.080Z,12.10
2022-11-12T00:11:11.714Z,12.10
2022-11-12T00:13:57.280Z,12.10
2022-11-12T00:16:42.887Z,12.10
2022-11-12T00:19:28.358Z,12.10
2022-11-12T00:22:13.918Z,12.10
2022-11-12T00:24:59.392Z,12.10
2022-11-12T00:27:45.043Z,12.10
2022-11-12T00:30:30.557Z,12.20
2022-11-12T00:33:15.719Z,12.20
2022-11-12T00:36:01.246Z,12.20
2022-11-12T00:38:46.730Z,12.20
2022-11-12T00:41:32.419Z,12.20
2022-11-12T00:44:17.944Z,12.20
2022-11-12T00:47:03.768Z,12.20
2022-11-12T00:49:49.295Z,12.20
2022-11-12T00:52:34.977Z,12.20
2022-11-12T00:55:21.011Z,12.20
2022-11-12T00:58:06.208Z,12.20
2022-11-12T01:00:51.824Z,12.20
2022-11-12T01:03:38.506Z,12.20
2022-11-12T01:06:24.438Z,12.10
2022-11-12T01:09:10.161Z,12.10
2022-11-12T01:11:55.644Z,12.10
2022-11-12T01:14:41.294Z,12.10
2022-11-12T01:17:26.608Z,12.20
2022-11-12T01:20:12.250Z,12.20
2022-11-12T01:22:57.549Z,12.20
2022-11-12T01:25:43.289Z,12.20
2022-11-12T01:28:29.396Z,12.20
2022-11-12T01:31:19.620Z,12.20
2022-11-12T01:34:07.413Z,12.20
2022-11-12T01:36:52.907Z,12.20
2022-11-12T01:39:38.340Z,12.20
2022-11-12T01:42:26.548Z,12.20
2022-11-12T01:45:17.090Z,12.20
2022-11-12T01:48:03.115Z,12.20
2022-11-12T01:50:48.718Z,12.30
2022-11-12T01:53:41.257Z,12.30
2022-11-12T01:56:29.045Z,12.20
2022-11-12T01:59:23.561Z,12.30
2022-11-12T02:02:09.127Z,12.20
2022-11-12T02:04:55.702Z,12.30
2022-11-12T02:07:43.704Z,12.30
2022-11-12T02:10:29.838Z,12.30
2022-11-12T02:13:34.783Z,12.30
2022-11-12T02:16:20.673Z,12.30
2022-11-12T02:19:09.010Z,12.30
2022-11-12T02:21:54.172Z,12.30
2022-11-12T02:24:39.877Z,12.30
2022-11-12T02:27:25.508Z,12.30
2022-11-12T02:30:12.185Z,12.30
2022-11-12T02:32:57.868Z,12.30
2022-11-12T02:35:43.105Z,12.30
2022-11-12T02:38:28.695Z,12.30
2022-11-12T02:41:13.976Z,12.30
2022-11-12T02:43:59.657Z,12.30
2022-11-12T02:46:45.173Z,12.30
2022-11-12T02:49:30.580Z,12.30
2022-11-12T02:52:16.216Z,12.30
2022-11-12T02:55:01.983Z,12.20
2022-11-12T02:57:47.526Z,12.20
2022-11-12T03:00:32.936Z,12.20
2022-11-12T03:03:18.387Z,12.20
2022-11-12T03:06:04.093Z,12.20
2022-11-12T03:08:49.254Z,12.20
2022-11-12T03:11:34.866Z,12.20
2022-11-12T03:14:20.325Z,12.20
2022-11-12T03:17:05.758Z,12.20
2022-11-12T03:19:51.306Z,12.20
2022-11-12T03:22:37.631Z,12.20
2022-11-12T03:25:23.387Z,12.20
2022-11-12T03:28:11.803Z,12.20
2022-11-12T03:30:58.912Z,12.10
2022-11-12T03:33:44.627Z,12.10
2022-11-12T03:36:29.966Z,12.10
2022-11-12T03:39:15.400Z,12.10
2022-11-12T03:42:00.999Z,12.10
2022-11-12T03:44:46.471Z,12.10
2022-11-12T03:47:31.984Z,12.00
2022-11-12T03:50:19.525Z,12.00
2022-11-12T03:53:05.002Z,12.00
2022-11-12T03:55:50.833Z,12.00
2022-11-12T03:58:36.342Z,12.00
2022-11-12T04:01:21.768Z,12.00
2022-11-12T04:04:07.258Z,12.00
2022-11-12T04:07:11.335Z,12.00
2022-11-12T04:14:10.671Z,11.90
2022-11-12T04:17:28.480Z,11.90
2022-11-12T04:20:32.534Z,11.90
2022-11-12T04:23:18.051Z,11.90
2022-11-12T04:26:22.075Z,11.80
2022-11-12T04:29:26.006Z,11.80
2022-11-12T04:32:11.694Z,11.80
2022-11-12T04:34:58.011Z,11.80
2022-11-12T04:37:47.031Z,11.70
2022-11-12T04:40:51.204Z,11.70
2022-11-12T04:43:55.229Z,11.70
2022-11-12T04:46:40.683Z,11.70
2022-11-12T04:49:26.116Z,11.60
2022-11-12T04:52:11.638Z,11.60
2022-11-12T04:54:57.867Z,11.60
2022-11-12T04:57:43.106Z,11.50
2022-11-12T05:00:29.550Z,11.50
2022-11-12T05:03:15.053Z,11.50
2022-11-12T05:06:29.972Z,11.40
2022-11-12T05:09:15.282Z,11.40
2022-11-12T05:12:00.713Z,11.40
2022-11-12T05:14:46.318Z,11.40
2022-11-12T05:17:31.887Z,11.40
2022-11-12T05:20:18.320Z,11.40
2022-11-12T05:23:07.600Z,11.40
2022-11-12T05:25:53.655Z,11.40
2022-11-12T05:28:39.075Z,11.30
2022-11-12T05:31:24.769Z,11.30
2022-11-12T05:34:10.226Z,11.30
2022-11-12T05:36:55.799Z,11.30
2022-11-12T05:39:41.207Z,11.30
2022-11-12T05:42:26.542Z,11.30
2022-11-12T05:45:14.082Z,11.30
2022-11-12T05:47:59.389Z,11.30
2022-11-12T05:51:11.305Z,11.30
2022-11-12T05:53:49.962Z,11.30
2022-11-12T05:56:36.157Z,11.20
2022-11-12T05:59:22.386Z,11.20
2022-11-12T06:02:08.099Z,11.20
2022-11-12T06:04:53.575Z,11.20
2022-11-12T06:07:39.212Z,11.20
2022-11-12T06:10:24.675Z,11.20
2022-11-12T06:13:10.118Z,11.20
2022-11-12T06:15:56.302Z,11.30
2022-11-12T06:18:41.630Z,11.30
2022-11-12T06:21:27.862Z,11.30
2022-11-12T06:24:13.523Z,11.30
2022-11-12T06:26:58.948Z,11.30
2022-11-12T06:29:44.535Z,11.40
2022-11-12T06:32:30.131Z,11.40
2022-11-12T06:35:16.402Z,11.40
2022-11-12T06:38:02.102Z,11.40
2022-11-12T06:40:47.684Z,11.40
2022-11-12T06:43:34.377Z,11.40
2022-11-12T06:46:20.005Z,11.40
2022-11-12T06:49:05.424Z,11.40
2022-11-12T06:51:51.598Z,11.40
2022-11-12T06:54:37.014Z,11.50
2022-11-12T06:57:22.492Z,11.50
2022-11-12T07:00:10.456Z,11.50
2022-11-12T07:02:56.341Z,11.50
2022-11-12T07:05:41.714Z,11.40
2022-11-12T07:08:27.535Z,11.40
2022-11-12T07:11:13.738Z,11.40
2022-11-12T07:13:59.637Z,11.40
2022-11-12T07:16:45.024Z,11.40
2022-11-12T07:19:30.679Z,11.40
2022-11-12T07:22:16.219Z,11.40
2022-11-12T07:25:01.797Z,11.40
2022-11-12T07:27:47.343Z,11.40
2022-11-12T07:30:32.824Z,11.40
2022-11-12T07:33:18.189Z,11.40
2022-11-12T07:36:09.230Z,11.40
2022-11-12T07:38:54.721Z,11.40
2022-11-12T07:41:40.665Z,11.40
2022-11-12T07:44:26.319Z,11.40
2022-11-12T07:47:11.969Z,11.40
2022-11-12T07:49:57.507Z,11.40
2022-11-12T07:52:42.959Z,11.40
2022-11-12T07:55:28.410Z,11.40
2022-11-12T07:58:13.971Z,11.50
2022-11-12T08:01:08.553Z,11.50
2022-11-12T08:03:54.014Z,11.50
2022-11-12T08:06:39.746Z,11.50
2022-11-12T08:09:25.083Z,11.50
2022-11-12T08:12:10.527Z,11.50
2022-11-12T08:14:56.094Z,11.50
2022-11-12T08:17:41.683Z,11.50
2022-11-12T08:20:27.489Z,11.50
2022-11-12T08:23:12.932Z,11.50
2022-11-12T08:26:04.119Z,11.50
2022-11-12T08:28:49.501Z,11.60
2022-11-12T08:31:34.954Z,11.50
2022-11-12T08:34:22.829Z,11.60
2022-11-12T08:37:08.340Z,11.50
2022-11-12T08:39:53.899Z,11.60
2022-11-12T08:42:39.665Z,11.60
2022-11-12T08:45:25.042Z,11.50
2022-11-12T08:48:14.503Z,11.50
2022-11-12T08:51:05.152Z,11.50
2022-11-12T08:53:50.673Z,11.50
2022-11-12T08:56:37.278Z,11.50
2022-11-12T08:59:23.339Z,11.50
2022-11-12T09:02:13.047Z,11.50
2022-11-12T09:04:58.501Z,11.50
2022-11-12T09:07:50.135Z,11.50
2022-11-12T09:10:37.023Z,11.50
2022-11-12T09:13:22.271Z,11.50
2022-11-12T09:16:09.613Z,11.50
2022-11-12T09:18:54.954Z,11.50
2022-11-12T09:21:40.402Z,11.50
2022-11-12T09:24:25.863Z,11.50
2022-11-12T09:27:11.280Z,11.50
2022-11-12T09:29:56.792Z,11.60
2022-11-12T09:32:42.218Z,11.50
2022-11-12T09:35:27.842Z,11.60
2022-11-12T09:38:17.850Z,11.60
2022-11-12T09:41:21.851Z,11.60
2022-11-12T09:44:18.195Z,11.60
2022-11-12T09:47:12.407Z,11.60
2022-11-12T09:50:05.237Z,11.60
2022-11-12T09:52:57.690Z,11.60
2022-11-12T09:55:48.265Z,11.60
2022-11-12T09:58:34.356Z,11.70
2022-11-12T10:01:24.769Z,11.60
2022-11-12T10:05:10.256Z,11.60
2022-11-12T10:08:26.000Z,11.60
2022-11-12T10:11:31.997Z,11.70
2022-11-12T10:14:47.013Z,11.70
2022-11-12T10:17:55.531Z,11.70
2022-11-12T10:21:01.761Z,11.70
2022-11-12T10:23:52.052Z,11.70
2022-11-12T10:26:38.724Z,11.80
2022-11-12T10:29:39.896Z,11.80
2022-11-12T10:32:25.143Z,11.80
2022-11-12T10:35:14.429Z,11.90
2022-11-12T10:38:06.477Z,11.90
2022-11-12T10:40:51.463Z,11.90
2022-11-12T10:43:37.021Z,11.90
2022-11-12T10:46:29.246Z,12.00
2022-11-12T10:49:14.645Z,12.00
2022-11-12T10:52:00.358Z,12.00
2022-11-12T10:54:48.627Z,12.00
2022-11-12T10:57:38.141Z,12.10
2022-11-12T11:00:24.037Z,12.10
2022-11-12T11:03:21.086Z,12.10
2022-11-12T11:06:21.636Z,12.20
2022-11-12T11:09:12.580Z,12.20
2022-11-12T11:11:59.346Z,12.20
2022-11-12T11:14:44.791Z,12.20
2022-11-12T11:17:30.302Z,12.30
2022-11-12T11:20:31.834Z,12.30
2022-11-12T11:23:37.867Z,12.30
2022-11-12T11:26:46.076Z,12.30
2022-11-12T11:29:37.356Z,12.40
2022-11-12T11:32:37.913Z,12.40
2022-11-12T11:35:26.332Z,12.50
2022-11-12T11:38:30.594Z,12.50
2022-11-12T11:41:37.519Z,12.50
2022-11-12T11:44:43.294Z,12.60
2022-11-12T11:48:00.417Z,12.60
2022-11-12T11:51:16.157Z,12.60
2022-11-12T11:54:25.884Z,12.70
2022-11-12T11:57:16.325Z,12.70
2022-11-12T12:00:17.031Z,12.80
2022-11-12T12:03:24.023Z,12.80
2022-11-12T12:06:24.283Z,12.80
2022-11-12T12:09:21.678Z,12.90
2022-11-12T12:12:33.715Z,12.90
2022-11-12T12:15:24.991Z,12.90
2022-11-12T12:18:33.517Z,12.90
2022-11-12T12:21:20.996Z,12.90
2022-11-12T12:24:16.458Z,13.00
2022-11-12T12:27:10.042Z,13.00
2022-11-12T12:30:04.452Z,13.00
2022-11-12T12:32:58.403Z,13.00
2022-11-12T12:35:56.097Z,13.10
2022-11-12T12:39:03.068Z,13.10
2022-11-12T12:41:59.745Z,13.10
2022-11-12T12:45:01.445Z,13.20
2022-11-12T12:47:47.443Z,13.20
2022-11-12T12:50:36.105Z,13.20
2022-11-12T12:53:27.785Z,13.20
2022-11-12T12:56:13.239Z,13.20
2022-11-12T12:59:03.710Z,13.30
2022-11-12T13:02:03.534Z,13.30
2022-11-12T13:04:58.717Z,13.30
2022-11-12T13:07:47.308Z,13.30
2022-11-12T13:10:41.968Z,13.30
2022-11-12T13:13:36.341Z,13.40
2022-11-12T13:16:50.989Z,13.40
2022-11-12T13:19:38.813Z,13.40
2022-11-12T13:22:24.306Z,13.40
2022-11-12T13:25:12.574Z,13.40
2022-11-12T13:28:09.947Z,13.40
2022-11-12T13:30:56.698Z,13.40
2022-11-12T13:33:42.382Z,13.50
2022-11-12T13:36:31.639Z,13.50
2022-11-12T13:39:20.077Z,13.50
2022-11-12T13:42:36.818Z,13.50
2022-11-12T13:45:25.032Z,13.50
2022-11-12T13:48:17.221Z,13.50
2022-11-12T13:51:06.214Z,13.50
2022-11-12T13:53:51.389Z,13.50
2022-11-12T13:56:37.638Z,13.50
2022-11-12T13:59:25.342Z,13.50
2022-11-12T14:02:26.299Z,13.50
2022-11-12T14:05:15.660Z,13.50
2022-11-12T14:08:46.975Z,13.50
2022-11-12T14:11:49.787Z,13.50
2022-11-12T14:15:03.199Z,13.50
2022-11-12T14:18:05.340Z,13.50
2022-11-12T14:20:50.830Z,13.50
2022-11-12T14:23:38.177Z,13.50
2022-11-12T14:26:39.461Z,13.50
2022-11-12T14:29:27.694Z,13.50
2022-11-12T14:32:18.821Z,13.50
2022-11-12T14:35:23.171Z,13.50
2022-11-12T14:38:46.762Z,13.50
2022-11-12T14:41:38.251Z,13.50
2022-11-12T14:44:31.421Z,13.60
2022-11-12T14:47:18.683Z,13.60
2022-11-12T14:50:04.423Z,13.60
2022-11-12T14:53:02.540Z,13.60
2022-11-12T14:55:51.431Z,13.60
2022-11-12T14:58:37.194Z,13.60
2022-11-12T15:04:44.997Z,13.60
2022-11-12T15:07:57.406Z,13.60
2022-11-12T15:10:45.814Z,13.60
2022-11-12T15:13:40.098Z,13.60
2022-11-12T15:16:32.065Z,13.60
2022-11-12T15:19:21.994Z,13.60
2022-11-12T15:22:21.928Z,13.60
2022-11-12T15:25:20.006Z,13.60
2022-11-12T15:28:22.619Z,13.60
2022-11-12T15:31:16.295Z,13.70
2022-11-12T15:34:23.349Z,13.70
2022-11-12T15:37:12.649Z,13.60
2022-11-12T15:39:59.766Z,13.70
2022-11-12T15:42:46.773Z,13.70
2022-11-12T15:45:31.992Z,13.70
2022-11-12T15:48:17.726Z,13.70
2022-11-12T15:51:02.972Z,13.70
2022-11-12T15:53:48.643Z,13.70
2022-11-12T15:56:34.207Z,13.70
2022-11-12T15:59:19.604Z,13.70
2022-11-12T16:02:13.134Z,13.70
2022-11-12T16:04:58.465Z,13.70
2022-11-12T16:07:44.157Z,13.70
2022-11-12T16:10:29.682Z,13.70
2022-11-12T16:13:26.111Z,13.70
2022-11-12T16:16:12.284Z,13.80
2022-11-12T16:18:57.683Z,13.80
2022-11-12T16:21:43.066Z,13.80
2022-11-12T16:24:28.749Z,13.80
2022-11-12T16:27:15.457Z,13.80
2022-11-12T16:30:00.634Z,13.80
2022-11-12T16:32:47.800Z,13.80
2022-11-12T16:35:35.136Z,13.80
2022-11-12T16:38:21.427Z,13.80
2022-11-12T16:41:10.790Z,13.80
2022-11-12T16:43:55.859Z,13.80
2022-11-12T16:46:41.997Z,13.80
2022-11-12T16:49:27.366Z,13.80
2022-11-12T16:52:12.874Z,13.80
2022-11-12T16:55:04.110Z,13.80
2022-11-12T16:57:50.345Z,13.80
2022-11-12T17:00:35.984Z,13.80
2022-11-12T17:03:21.420Z,13.80
2022-11-12T17:06:07.169Z,13.80
2022-11-12T17:08:56.201Z,13.80
2022-11-12T17:11:41.599Z,13.80
2022-11-12T17:14:28.518Z,13.80
2022-11-12T17:17:14.044Z,13.80
2022-11-12T17:19:59.775Z,13.80
2022-11-12T17:22:45.259Z,13.80
2022-11-12T17:25:30.645Z,13.80
2022-11-12T17:28:16.189Z,13.80
2022-11-12T17:31:22.355Z,13.80
2022-11-12T17:34:07.614Z,13.80
2022-11-12T17:36:53.172Z,13.80
2022-11-12T17:39:38.609Z,13.80
2022-11-12T17:42:24.010Z,13.80
2022-11-12T17:45:09.838Z,13.70
2022-11-12T17:47:55.329Z,13.70
2022-11-12T17:50:40.932Z,13.60
2022-11-12T17:53:26.844Z,13.60
2022-11-12T17:56:15.323Z,13.60
2022-11-12T17:59:02.124Z,13.50
2022-11-12T18:01:47.716Z,13.50
2022-11-12T18:04:33.173Z,13.50
2022-11-12T18:07:18.630Z,13.50
2022-11-12T18:10:04.441Z,13.40
2022-11-12T18:12:52.182Z,13.40
2022-11-12T18:15:37.469Z,13.40
2022-11-12T18:18:23.014Z,13.40
2022-11-12T18:21:08.787Z,13.40
2022-11-12T18:23:54.279Z,13.30
2022-11-12T18:26:39.530Z,13.30
2022-11-12T18:29:25.526Z,13.30
2022-11-12T18:32:11.152Z,13.30
2022-11-12T18:34:57.333Z,13.30
2022-11-12T18:37:43.210Z,13.20
2022-11-12T18:40:28.710Z,13.30
2022-11-12T18:43:14.767Z,13.30
2022-11-12T18:46:00.300Z,13.20
2022-11-12T18:48:46.148Z,13.20
2022-11-12T18:51:31.844Z,13.20
2022-11-12T18:54:17.457Z,13.20
2022-11-12T18:57:03.339Z,13.10
2022-11-12T18:59:49.472Z,13.10
2022-11-12T19:02:34.917Z,13.20
2022-11-12T19:05:22.200Z,13.10
2022-11-12T19:08:07.596Z,13.10
2022-11-12T19:11:00.422Z,13.10
2022-11-12T19:13:50.182Z,13.10
2022-11-12T19:16:36.103Z,13.10
2022-11-12T19:19:22.017Z,13.10
2022-11-12T19:22:07.432Z,13.10
2022-11-12T19:24:53.537Z,13.00
2022-11-12T19:27:39.087Z,13.00
2022-11-12T19:30:24.732Z,13.00
2022-11-12T19:33:10.212Z,13.00
2022-11-12T19:35:55.912Z,12.90
2022-11-12T19:38:41.554Z,12.90
2022-11-12T19:41:27.204Z,12.90
2022-11-12T19:44:12.781Z,12.90
2022-11-12T19:46:58.187Z,12.90
2022-11-12T19:49:44.027Z,12.80
2022-11-12T19:52:29.858Z,12.80
2022-11-12T19:55:15.415Z,12.80
2022-11-12T19:58:01.146Z,12.80
2022-11-12T20:00:46.842Z,12.80
2022-11-12T20:03:32.589Z,12.80
2022-11-12T20:06:22.569Z,12.80
2022-11-12T20:09:08.822Z,12.70
2022-11-12T20:11:54.357Z,12.80
2022-11-12T20:14:39.693Z,12.80
2022-11-12T20:17:25.165Z,12.80
2022-11-12T20:20:11.098Z,12.70
2022-11-12T20:22:56.712Z,12.70
2022-11-12T20:25:42.388Z,12.70
2022-11-12T20:28:28.111Z,12.70
2022-11-12T20:31:16.207Z,12.70
2022-11-12T20:34:02.071Z,12.70
2022-11-12T20:36:47.444Z,12.70
2022-11-12T20:39:33.028Z,12.70
2022-11-12T20:42:18.584Z,12.70
2022-11-12T20:45:04.476Z,12.70
2022-11-12T20:47:50.382Z,12.60
2022-11-12T20:50:36.927Z,12.60
2022-11-12T20:53:22.566Z,12.60
2022-11-12T20:56:14.051Z,12.60
2022-11-12T20:59:00.753Z,12.60
2022-11-12T21:01:46.495Z,12.50
2022-11-12T21:04:31.963Z,12.50
2022-11-12T21:07:17.809Z,12.50
2022-11-12T21:10:04.131Z,12.50
2022-11-12T21:12:49.921Z,12.40
2022-11-12T21:15:35.887Z,12.40
2022-11-12T21:18:26.549Z,12.40
2022-11-12T21:21:18.341Z,12.40
2022-11-12T21:24:05.269Z,12.40
2022-11-12T21:26:51.129Z,12.40
2022-11-12T21:29:36.767Z,12.30
2022-11-12T21:32:22.632Z,12.30
2022-11-12T21:35:08.505Z,12.30
2022-11-12T21:37:54.428Z,12.30
2022-11-12T21:40:39.703Z,12.30
2022-11-12T21:43:25.128Z,12.30
2022-11-12T21:46:15.919Z,12.30
2022-11-12T21:49:01.398Z,12.30
2022-11-12T21:51:47.219Z,12.30
2022-11-12T21:54:32.521Z,12.20
2022-11-12T21:57:19.004Z,12.20
2022-11-12T22:00:39.902Z,12.20
2022-11-12T22:03:10.871Z,12.20
2022-11-12T22:05:56.094Z,12.20
2022-11-12T22:08:42.549Z,12.20
2022-11-12T22:11:28.668Z,12.20
2022-11-12T22:14:14.153Z,12.20
2022-11-12T22:16:59.510Z,12.10
2022-11-12T22:19:45.109Z,12.10
2022-11-12T22:22:30.726Z,12.10
2022-11-12T22:25:16.212Z,12.10
2022-11-12T22:28:01.760Z,12.10
2022-11-12T22:30:47.102Z,12.10
2022-11-12T22:33:32.986Z,12.10
2022-11-12T22:36:21.445Z,12.10
2022-11-12T22:39:06.815Z,12.10
2022-11-12T22:41:52.298Z,12.00
2022-11-12T22:44:37.822Z,12.10
2022-11-12T22:47:23.246Z,12.10
2022-11-12T22:50:09.432Z,12.10
2022-11-12T22:52:56.253Z,12.10
2022-11-12T22:55:41.520Z,12.10
2022-11-12T22:58:27.382Z,12.10
2022-11-12T23:01:20.753Z,12.10
2022-11-12T23:04:07.757Z,12.10
2022-11-12T23:06:53.401Z,12.10
2022-11-12T23:09:38.892Z,12.10
2022-11-12T23:12:24.332Z,12.20
2022-11-12T23:15:10.406Z,12.20
2022-11-12T23:17:55.851Z,12.20
2022-11-12T23:20:41.257Z,12.20
2022-11-12T23:23:26.927Z,12.20
2022-11-12T23:26:21.669Z,12.10
2022-11-12T23:29:07.243Z,12.20
2022-11-12T23:31:52.669Z,12.20
2022-11-12T23:34:38.281Z,12.20
2022-11-12T23:37:23.667Z,12.10
2022-11-12T23:40:09.554Z,12.10
2022-11-12T23:42:55.139Z,12.10
2022-11-12T23:45:41.753Z,12.10
2022-11-12T23:48:28.240Z,12.10
2022-11-12T23:51:19.061Z,12.10
2022-11-12T23:54:04.370Z,12.10
2022-11-12T23:56:49.833Z,12.00
2022-11-12T23:59:35.537Z,12.00
